createdAt,value
2023-02-02T00:01:01.106Z,2.73
2023-02-02T00:03:27.471Z,3.50
2023-02-02T00:05:54.238Z,3.93
2023-02-02T00:08:21.860Z,3.17
2023-02-02T00:10:50.400Z,3.03
2023-02-02T00:13:17.472Z,2.83
2023-02-02T00:15:44.041Z,2.70
2023-02-02T00:18:10.431Z,2.33
2023-02-02T00:20:36.868Z,3.27
2023-02-02T00:23:04.176Z,3.20
2023-02-02T00:25:31.468Z,3.33
2023-02-02T00:27:58.008Z,3.23
2023-02-02T00:30:24.551Z,3.80
2023-02-02T00:32:52.946Z,4.50
2023-02-02T00:35:20.242Z,3.47
2023-02-02T00:37:46.653Z,3.30
2023-02-02T00:40:13.182Z,3.80
2023-02-02T00:42:39.616Z,4.60
2023-02-02T00:45:18.889Z,4.87
2023-02-02T00:47:48.201Z,5.23
2023-02-02T00:50:17.606Z,6.00
2023-02-02T00:52:43.964Z,6.60
2023-02-02T00:55:12.176Z,7.63
2023-02-02T00:57:38.965Z,6.47
2023-02-02T01:00:07.550Z,7.20
2023-02-02T01:02:35.300Z,6.07
2023-02-02T01:05:02.154Z,5.80
2023-02-02T01:07:28.973Z,5.03
2023-02-02T01:09:56.840Z,3.63
2023-02-02T01:12:23.422Z,4.23
2023-02-02T01:14:49.897Z,4.37
2023-02-02T01:17:16.358Z,3.97
2023-02-02T01:19:42.781Z,3.50
2023-02-02T01:22:09.288Z,3.40
2023-02-02T01:24:35.681Z,3.17
2023-02-02T01:27:02.094Z,3.20
2023-02-02T01:29:28.503Z,3.40
2023-02-02T01:31:55.315Z,3.27
2023-02-02T01:34:21.876Z,3.70
2023-02-02T01:36:48.528Z,3.57
2023-02-02T01:39:14.912Z,4.07
2023-02-02T01:41:42.122Z,3.57
2023-02-02T01:44:46.005Z,3.23
2023-02-02T01:47:12.999Z,4.57
2023-02-02T01:49:41.087Z,4.47
2023-02-02T01:52:10.075Z,5.40
2023-02-02T01:54:41.818Z,4.83
2023-02-02T01:57:28.805Z,5.53
2023-02-02T01:59:59.173Z,5.87
2023-02-02T02:02:27.693Z,4.97
2023-02-02T02:04:55.354Z,5.47
2023-02-02T02:07:23.394Z,7.00
2023-02-02T02:09:50.119Z,6.77
2023-02-02T02:12:16.828Z,6.70
2023-02-02T02:15:05.023Z,7.30
2023-02-02T02:18:14.444Z,7.80
2023-02-02T02:21:17.112Z,8.00
2023-02-02T02:25:00.186Z,7.47
2023-02-02T02:27:44.838Z,7.87
2023-02-02T02:30:46.803Z,8.13
2023-02-02T02:33:39.990Z,7.60
2023-02-02T02:36:44.995Z,8.40
2023-02-02T02:39:22.306Z,7.13
2023-02-02T02:41:55.856Z,7.20
2023-02-02T02:44:22.682Z,6.97
2023-02-02T02:46:50.296Z,7.50
2023-02-02T02:49:17.868Z,6.83
2023-02-02T02:51:50.489Z,6.27
2023-02-02T02:54:33.963Z,5.83
2023-02-02T02:57:34.419Z,5.43
2023-02-02T03:00:07.632Z,6.07
2023-02-02T03:03:05.219Z,5.83
2023-02-02T03:05:54.402Z,6.57
2023-02-02T03:08:29.182Z,6.40
2023-02-02T03:10:57.730Z,4.37
2023-02-02T03:13:25.884Z,4.40
2023-02-02T03:15:52.663Z,4.90
2023-02-02T03:18:21.694Z,4.60
2023-02-02T03:20:48.098Z,5.53
2023-02-02T03:23:14.746Z,5.00
2023-02-02T03:25:41.496Z,5.97
2023-02-02T03:28:07.873Z,6.50
2023-02-02T03:30:34.537Z,6.63
2023-02-02T03:33:01.029Z,7.57
2023-02-02T03:35:27.488Z,8.07
2023-02-02T03:37:53.959Z,8.67
2023-02-02T03:40:20.379Z,9.00
2023-02-02T03:42:46.799Z,7.33
2023-02-02T03:45:13.314Z,7.23
2023-02-02T03:47:39.678Z,6.50
2023-02-02T03:50:09.760Z,5.40
2023-02-02T03:52:36.281Z,5.83
2023-02-02T03:55:02.669Z,4.70
2023-02-02T03:57:29.037Z,4.50
2023-02-02T03:59:55.410Z,6.00
2023-02-02T04:02:21.960Z,5.37
2023-02-02T04:04:48.379Z,5.57
2023-02-02T04:07:14.926Z,6.33
2023-02-02T04:09:41.329Z,6.23
2023-02-02T04:12:07.710Z,6.73
2023-02-02T04:14:34.088Z,6.70
2023-02-02T04:17:00.485Z,6.90
2023-02-02T04:19:26.881Z,6.73
2023-02-02T04:21:53.876Z,7.20
2023-02-02T04:24:20.264Z,7.23
2023-02-02T04:26:46.638Z,7.27
2023-02-02T04:29:13.214Z,6.90
2023-02-02T04:31:39.576Z,7.77
2023-02-02T04:34:05.978Z,7.17
2023-02-02T04:36:32.437Z,8.00
2023-02-02T04:38:58.835Z,7.07
2023-02-02T04:41:25.359Z,10.90
2023-02-02T04:43:51.976Z,10.90
2023-02-02T04:46:18.669Z,10.37
2023-02-02T04:48:45.024Z,10.63
2023-02-02T04:51:14.119Z,10.40
2023-02-02T04:53:41.722Z,10.57
2023-02-02T04:56:13.792Z,9.47
2023-02-02T04:58:40.735Z,10.80
2023-02-02T05:01:12.897Z,9.80
2023-02-02T05:03:39.336Z,9.80
2023-02-02T05:06:06.525Z,9.93
2023-02-02T05:08:33.190Z,10.00
2023-02-02T05:10:59.551Z,10.23
2023-02-02T05:13:26.133Z,9.93
2023-02-02T05:15:53.879Z,9.03
2023-02-02T05:18:20.250Z,9.33
2023-02-02T05:20:46.628Z,8.60
2023-02-02T05:23:12.957Z,10.07
2023-02-02T05:25:39.304Z,9.07
2023-02-02T05:28:05.671Z,8.87
2023-02-02T05:30:33.580Z,8.27
2023-02-02T05:33:00.105Z,8.53
2023-02-02T05:35:26.762Z,7.97
2023-02-02T05:37:53.347Z,7.73
2023-02-02T05:40:19.856Z,8.90
2023-02-02T05:42:48.457Z,8.50
2023-02-02T05:45:15.017Z,8.87
2023-02-02T05:47:41.402Z,8.70
2023-02-02T05:50:09.372Z,9.80
2023-02-02T05:52:37.236Z,9.07
2023-02-02T05:55:04.459Z,9.50
2023-02-02T05:57:30.835Z,8.60
2023-02-02T05:59:57.194Z,8.53
2023-02-02T06:02:23.564Z,8.40
2023-02-02T06:04:50.076Z,9.63
2023-02-02T06:07:16.427Z,9.43
2023-02-02T06:09:42.767Z,10.00
2023-02-02T06:12:09.708Z,9.23
2023-02-02T06:14:36.052Z,8.90
2023-02-02T06:17:02.459Z,8.63
2023-02-02T06:19:28.828Z,9.37
2023-02-02T06:21:55.479Z,8.87
2023-02-02T06:24:21.825Z,9.30
2023-02-02T06:26:48.241Z,10.03
2023-02-02T06:29:14.855Z,8.23
2023-02-02T06:31:41.391Z,8.00
2023-02-02T06:34:10.258Z,8.23
2023-02-02T06:36:36.634Z,8.93
2023-02-02T06:39:04.720Z,9.23
2023-02-02T06:41:31.577Z,8.80
2023-02-02T06:43:57.934Z,8.57
2023-02-02T06:46:24.285Z,9.63
2023-02-02T06:48:50.696Z,8.10
2023-02-02T06:51:17.074Z,9.33
2023-02-02T06:53:43.401Z,10.13
2023-02-02T06:56:12.920Z,9.67
2023-02-02T06:58:39.463Z,9.73
2023-02-02T07:01:08.822Z,10.50
2023-02-02T07:03:36.114Z,9.63
2023-02-02T07:06:16.768Z,9.43
2023-02-02T07:08:43.162Z,9.93
2023-02-02T07:11:15.963Z,9.53
2023-02-02T07:13:44.728Z,9.63
2023-02-02T07:16:12.898Z,9.83
2023-02-02T07:18:40.084Z,10.50
2023-02-02T07:21:06.816Z,10.03
2023-02-02T07:23:34.175Z,10.10
2023-02-02T07:26:08.591Z,10.20
2023-02-02T07:28:35.580Z,10.40
2023-02-02T07:31:16.181Z,10.93
2023-02-02T07:33:44.011Z,9.77
2023-02-02T07:36:11.467Z,9.93
2023-02-02T07:38:38.143Z,10.47
2023-02-02T07:41:04.974Z,11.03
2023-02-02T07:43:31.559Z,10.47
2023-02-02T07:46:02.704Z,10.07
2023-02-02T07:48:30.609Z,9.73
2023-02-02T07:51:01.193Z,11.73
2023-02-02T07:53:28.677Z,11.37
2023-02-02T07:56:15.501Z,11.43
2023-02-02T07:58:43.046Z,11.73
2023-02-02T08:01:11.639Z,11.13
2023-02-02T08:03:38.898Z,11.77
2023-02-02T08:06:35.998Z,11.47
2023-02-02T08:09:05.596Z,12.90
2023-02-02T08:11:31.967Z,10.83
2023-02-02T08:14:00.140Z,10.97
2023-02-02T08:16:28.368Z,11.73
2023-02-02T08:18:55.363Z,12.07
2023-02-02T08:21:22.055Z,11.90
2023-02-02T08:23:48.785Z,11.23
2023-02-02T08:26:18.146Z,11.97
2023-02-02T08:28:47.362Z,12.17
2023-02-02T08:31:21.367Z,11.97
2023-02-02T08:33:48.486Z,12.53
2023-02-02T08:36:16.962Z,12.57
2023-02-02T08:38:43.796Z,12.23
2023-02-02T08:41:13.468Z,12.90
2023-02-02T08:43:40.194Z,13.00
2023-02-02T08:46:08.597Z,13.10
2023-02-02T08:48:36.275Z,12.87
2023-02-02T08:51:04.147Z,12.13
2023-02-02T08:53:30.994Z,12.23
2023-02-02T08:56:02.107Z,14.10
2023-02-02T08:58:28.606Z,13.43
2023-02-02T09:00:55.089Z,11.97
2023-02-02T09:03:21.469Z,12.70
2023-02-02T09:05:47.851Z,12.07
2023-02-02T09:08:14.259Z,12.57
2023-02-02T09:10:40.611Z,13.27
2023-02-02T09:13:06.980Z,13.17
2023-02-02T09:15:33.400Z,13.53
2023-02-02T09:17:59.753Z,12.67
2023-02-02T09:20:26.198Z,11.87
2023-02-02T09:22:55.471Z,12.63
2023-02-02T09:25:22.110Z,14.03
2023-02-02T09:27:48.617Z,13.40
2023-02-02T09:30:15.155Z,11.57
2023-02-02T09:32:41.565Z,12.80
2023-02-02T09:35:08.352Z,11.93
2023-02-02T09:37:35.053Z,13.23
2023-02-02T09:40:01.565Z,11.60
2023-02-02T09:42:40.300Z,11.83
2023-02-02T09:45:48.868Z,12.57
2023-02-02T09:48:40.285Z,12.57
2023-02-02T09:51:13.841Z,12.13
2023-02-02T09:53:55.254Z,13.03
2023-02-02T09:56:40.982Z,12.73
2023-02-02T09:59:20.519Z,12.00
2023-02-02T10:01:51.946Z,12.93
2023-02-02T10:04:36.183Z,13.50
2023-02-02T10:07:35.414Z,12.07
2023-02-02T10:10:18.018Z,13.87
2023-02-02T10:12:59.175Z,13.03
2023-02-02T10:15:34.989Z,13.53
2023-02-02T10:18:11.523Z,13.97
2023-02-02T10:20:51.165Z,14.13
2023-02-02T10:23:28.133Z,13.03
2023-02-02T10:26:08.509Z,13.77
2023-02-02T10:28:49.329Z,13.77
2023-02-02T10:31:41.687Z,14.13
2023-02-02T10:34:24.447Z,12.97
2023-02-02T10:36:56.679Z,12.47
2023-02-02T10:39:41.330Z,13.30
2023-02-02T10:42:30.004Z,12.50
2023-02-02T10:45:04.396Z,13.13
2023-02-02T10:47:33.595Z,11.70
2023-02-02T10:50:15.627Z,12.67
2023-02-02T10:52:56.298Z,12.80
2023-02-02T10:55:32.732Z,12.13
2023-02-02T10:58:11.227Z,11.60
2023-02-02T11:00:55.787Z,11.03
2023-02-02T11:03:26.724Z,11.93
2023-02-02T11:06:11.785Z,11.40
2023-02-02T11:08:41.210Z,11.63
2023-02-02T11:11:20.927Z,10.97
2023-02-02T11:13:55.232Z,11.23
2023-02-02T11:16:28.455Z,10.70
2023-02-02T11:18:59.831Z,11.50
2023-02-02T11:21:29.091Z,12.23
2023-02-02T11:24:02.758Z,11.73
2023-02-02T11:27:03.056Z,12.10
2023-02-02T11:29:32.670Z,11.33
2023-02-02T11:32:18.702Z,11.53
2023-02-02T11:34:45.045Z,10.43
2023-02-02T11:37:20.632Z,9.80
2023-02-02T11:39:47.011Z,10.17
2023-02-02T11:42:23.886Z,10.63
2023-02-02T11:44:53.282Z,9.73
2023-02-02T11:47:25.919Z,11.00
2023-02-02T11:49:55.354Z,10.80
2023-02-02T11:52:26.873Z,9.60
2023-02-02T11:54:58.084Z,10.77
2023-02-02T11:57:26.290Z,10.03
2023-02-02T12:00:10.744Z,10.17
2023-02-02T12:02:37.387Z,10.50
2023-02-02T12:05:09.755Z,10.67
2023-02-02T12:07:37.420Z,10.00
2023-02-02T12:10:36.745Z,8.97
2023-02-02T12:13:31.660Z,9.93
2023-02-02T12:16:00.814Z,9.80
2023-02-02T12:18:53.029Z,10.87
2023-02-02T12:21:41.281Z,9.57
2023-02-02T12:24:18.237Z,10.30
2023-02-02T12:26:54.895Z,9.40
2023-02-02T12:29:47.543Z,10.40
2023-02-02T12:32:21.992Z,11.03
2023-02-02T12:35:14.843Z,10.10
2023-02-02T12:37:48.606Z,10.97
2023-02-02T12:40:25.366Z,9.93
2023-02-02T12:43:06.716Z,9.93
2023-02-02T12:45:45.831Z,10.83
2023-02-02T12:48:21.699Z,10.07
2023-02-02T12:51:12.087Z,10.80
2023-02-02T12:54:34.478Z,10.93
2023-02-02T12:56:56.090Z,9.93
2023-02-02T12:59:47.176Z,10.97
2023-02-02T13:02:44.556Z,11.33
2023-02-02T13:05:23.039Z,11.13
2023-02-02T13:07:58.139Z,11.83
2023-02-02T13:10:36.860Z,10.80
2023-02-02T13:13:13.782Z,10.33
2023-02-02T13:15:47.879Z,11.77
2023-02-02T13:18:20.983Z,13.10
2023-02-02T13:20:55.310Z,11.50
2023-02-02T13:23:27.435Z,11.67
2023-02-02T13:25:59.730Z,11.83
2023-02-02T13:28:36.772Z,12.50
2023-02-02T13:31:09.768Z,12.33
2023-02-02T13:33:37.918Z,10.97
2023-02-02T13:36:17.847Z,12.03
2023-02-02T13:38:45.845Z,10.90
2023-02-02T13:41:13.413Z,11.00
2023-02-02T13:43:57.970Z,11.40
2023-02-02T13:46:34.134Z,11.40
2023-02-02T13:49:13.146Z,11.50
2023-02-02T13:51:45.883Z,10.80
2023-02-02T13:54:33.543Z,10.87
2023-02-02T13:57:19.339Z,11.47
2023-02-02T14:00:01.557Z,10.53
2023-02-02T14:02:42.142Z,11.33
2023-02-02T14:05:21.847Z,10.93
2023-02-02T14:07:49.220Z,9.67
2023-02-02T14:10:25.769Z,10.83
2023-02-02T14:12:53.410Z,9.50
2023-02-02T14:15:35.976Z,10.17
2023-02-02T14:18:02.350Z,10.33
2023-02-02T14:20:42.402Z,10.00
2023-02-02T14:23:45.976Z,10.93
2023-02-02T14:26:12.520Z,10.63
2023-02-02T14:28:42.517Z,10.10
2023-02-02T14:31:29.602Z,11.97
2023-02-02T14:34:26.582Z,10.13
2023-02-02T14:37:26.215Z,9.80
2023-02-02T14:40:12.376Z,11.17
2023-02-02T14:43:27.466Z,10.50
2023-02-02T14:46:15.450Z,11.47
2023-02-02T14:49:07.474Z,12.23
2023-02-02T14:51:45.736Z,13.10
2023-02-02T14:54:21.588Z,14.23
2023-02-02T14:56:52.876Z,12.43
2023-02-02T14:59:24.516Z,11.40
2023-02-02T15:02:15.232Z,10.90
2023-02-02T15:04:42.283Z,10.33
2023-02-02T15:07:23.643Z,10.30
2023-02-02T15:09:51.741Z,10.80
2023-02-02T15:12:22.480Z,10.20
2023-02-02T15:15:10.440Z,11.50
2023-02-02T15:17:44.291Z,10.77
2023-02-02T15:20:28.527Z,10.73
2023-02-02T15:23:00.850Z,11.53
2023-02-02T15:26:04.811Z,13.37
2023-02-02T15:28:47.237Z,12.77
2023-02-02T15:31:27.827Z,12.60
2023-02-02T15:33:59.640Z,13.27
2023-02-02T15:36:31.051Z,13.03
2023-02-02T15:39:19.189Z,14.90
2023-02-02T15:41:47.588Z,13.87
2023-02-02T15:44:26.464Z,13.57
2023-02-02T15:46:54.718Z,14.17
2023-02-02T15:49:34.176Z,14.83
2023-02-02T15:52:10.702Z,14.90
2023-02-02T15:54:39.946Z,13.93
2023-02-02T15:57:28.423Z,13.90
2023-02-02T15:59:55.746Z,13.47
2023-02-02T16:02:38.999Z,13.50
2023-02-02T16:05:24.564Z,12.50
2023-02-02T16:08:03.756Z,13.00
2023-02-02T16:10:31.748Z,13.77
2023-02-02T16:12:58.504Z,12.40
2023-02-02T16:15:28.237Z,12.60
2023-02-02T16:18:03.970Z,12.30
2023-02-02T16:20:33.891Z,12.50
2023-02-02T16:23:04.532Z,12.63
2023-02-02T16:25:36.606Z,11.83
2023-02-02T16:28:03.928Z,12.43
2023-02-02T16:30:36.699Z,12.30
2023-02-02T16:33:40.474Z,12.20
2023-02-02T16:36:26.651Z,12.73
2023-02-02T16:38:54.940Z,13.77
2023-02-02T16:41:36.957Z,14.23
2023-02-02T16:44:48.634Z,12.30
2023-02-02T16:47:26.914Z,14.47
2023-02-02T16:50:08.451Z,15.20
2023-02-02T16:52:47.933Z,17.83
2023-02-02T16:55:17.993Z,18.30
2023-02-02T16:57:46.933Z,18.10
2023-02-02T17:00:24.904Z,16.83
2023-02-02T17:03:10.807Z,15.87
2023-02-02T17:05:51.152Z,17.20
2023-02-02T17:08:26.650Z,16.60
2023-02-02T17:11:24.877Z,18.07
2023-02-02T17:13:52.058Z,20.17
2023-02-02T17:16:21.067Z,20.33
2023-02-02T17:18:48.249Z,19.97
2023-02-02T17:21:18.991Z,21.93
2023-02-02T17:23:45.798Z,21.20
2023-02-02T17:26:12.765Z,20.03
2023-02-02T17:28:41.126Z,20.40
2023-02-02T17:31:16.079Z,19.17
2023-02-02T17:33:43.391Z,19.77
2023-02-02T17:36:13.065Z,18.47
2023-02-02T17:38:40.062Z,18.43
2023-02-02T17:41:06.731Z,18.33
2023-02-02T17:43:33.646Z,19.20
2023-02-02T17:46:00.336Z,18.40
2023-02-02T17:48:26.666Z,18.47
2023-02-02T17:50:53.064Z,18.77
2023-02-02T17:53:21.579Z,18.13
2023-02-02T17:55:52.248Z,15.67
2023-02-02T17:58:18.982Z,15.90
2023-02-02T18:00:48.051Z,16.60
2023-02-02T18:03:26.501Z,15.80
2023-02-02T18:05:52.927Z,17.33
2023-02-02T18:08:19.687Z,14.10
2023-02-02T18:10:46.057Z,13.97
2023-02-02T18:13:17.438Z,13.17
2023-02-02T18:15:44.079Z,11.97
2023-02-02T18:18:12.435Z,13.40
2023-02-02T18:20:43.210Z,13.00
2023-02-02T18:23:09.980Z,11.70
2023-02-02T18:25:37.690Z,10.97
2023-02-02T18:28:04.243Z,10.10
2023-02-02T18:30:30.687Z,10.63
2023-02-02T18:32:57.030Z,10.67
2023-02-02T18:35:23.752Z,10.87
2023-02-02T18:37:50.878Z,10.90
2023-02-02T18:40:18.309Z,12.30
2023-02-02T18:42:44.797Z,12.63
2023-02-02T18:45:11.575Z,12.43
2023-02-02T18:47:39.405Z,13.23
2023-02-02T18:50:07.953Z,14.43
2023-02-02T18:52:34.811Z,14.50
2023-02-02T18:55:01.457Z,14.57
2023-02-02T18:57:30.129Z,16.43
2023-02-02T18:59:56.480Z,15.70
2023-02-02T19:02:22.819Z,16.37
2023-02-02T19:05:07.866Z,16.83
2023-02-02T19:07:52.641Z,17.80
2023-02-02T19:10:19.465Z,18.70
2023-02-02T19:12:55.655Z,18.67
2023-02-02T19:15:23.047Z,19.57
2023-02-02T19:17:52.542Z,20.97
2023-02-02T19:20:25.996Z,20.63
2023-02-02T19:22:56.245Z,22.40
2023-02-02T19:25:22.635Z,21.77
2023-02-02T19:27:48.978Z,21.07
2023-02-02T19:30:19.719Z,20.87
2023-02-02T19:32:46.101Z,20.13
2023-02-02T19:35:19.523Z,20.27
2023-02-02T19:37:48.330Z,20.73
2023-02-02T19:40:23.424Z,20.60
2023-02-02T19:43:01.312Z,21.60
2023-02-02T19:45:32.941Z,20.90
2023-02-02T19:48:02.416Z,21.83
2023-02-02T19:50:36.642Z,20.90
2023-02-02T19:53:12.092Z,20.87
2023-02-02T19:55:41.420Z,20.57
2023-02-02T19:58:35.293Z,20.20
2023-02-02T20:01:10.159Z,20.37
2023-02-02T20:03:43.119Z,20.70
2023-02-02T20:06:17.960Z,20.67
2023-02-02T20:08:44.406Z,20.13
2023-02-02T20:11:32.529Z,20.87
2023-02-02T20:14:00.478Z,19.37
2023-02-02T20:16:37.746Z,20.37
2023-02-02T20:19:04.136Z,20.97
2023-02-02T20:21:38.244Z,19.93
2023-02-02T20:24:16.766Z,22.03
2023-02-02T20:26:43.301Z,21.53
2023-02-02T20:29:36.318Z,19.87
2023-02-02T20:32:04.911Z,20.67
2023-02-02T20:34:35.383Z,22.07
2023-02-02T20:37:26.987Z,21.03
2023-02-02T20:39:56.415Z,19.80
2023-02-02T20:42:23.317Z,22.00
2023-02-02T20:44:50.352Z,22.37
2023-02-02T20:47:16.743Z,22.60
2023-02-02T20:49:43.734Z,22.70
2023-02-02T20:52:17.912Z,22.00
2023-02-02T20:54:44.284Z,22.37
2023-02-02T20:57:10.630Z,22.43
2023-02-02T20:59:37.069Z,22.70
2023-02-02T21:02:05.163Z,23.17
2023-02-02T21:04:32.319Z,23.43
2023-02-02T21:06:59.495Z,23.47
2023-02-02T21:09:26.492Z,23.67
2023-02-02T21:11:52.943Z,23.37
2023-02-02T21:14:19.624Z,22.63
2023-02-02T21:16:45.975Z,23.20
2023-02-02T21:19:12.430Z,21.23
2023-02-02T21:21:38.993Z,21.40
2023-02-02T21:24:05.813Z,22.23
2023-02-02T21:26:32.300Z,21.23
2023-02-02T21:28:59.164Z,22.10
2023-02-02T21:31:26.443Z,20.40
2023-02-02T21:33:53.689Z,21.33
2023-02-02T21:36:44.861Z,21.40
2023-02-02T21:39:23.209Z,21.77
2023-02-02T21:41:50.463Z,22.53
2023-02-02T21:44:19.645Z,21.10
2023-02-02T21:46:48.759Z,21.80
2023-02-02T21:49:20.347Z,20.33
2023-02-02T21:51:46.709Z,20.23
2023-02-02T21:54:36.955Z,20.67
2023-02-02T21:57:14.028Z,20.93
2023-02-02T21:59:42.373Z,19.80
2023-02-02T22:02:34.710Z,18.87
2023-02-02T22:05:02.153Z,19.93
2023-02-02T22:07:28.873Z,19.87
2023-02-02T22:09:55.546Z,18.47
2023-02-02T22:12:25.172Z,19.13
2023-02-02T22:15:00.258Z,19.93
2023-02-02T22:17:37.523Z,19.57
2023-02-02T22:20:17.277Z,18.67
2023-02-02T22:22:46.570Z,20.10
2023-02-02T22:25:15.629Z,21.27
2023-02-02T22:28:01.315Z,19.97
2023-02-02T22:30:49.098Z,21.17
2023-02-02T22:33:16.119Z,19.53
2023-02-02T22:35:43.008Z,18.50
2023-02-02T22:38:10.563Z,20.27
2023-02-02T22:40:37.822Z,18.90
2023-02-02T22:43:06.237Z,21.73
2023-02-02T22:45:32.676Z,19.50
2023-02-02T22:47:59.330Z,19.97
2023-02-02T22:50:28.518Z,19.43
2023-02-02T22:52:55.680Z,21.10
2023-02-02T22:55:22.742Z,20.67
2023-02-02T22:57:49.209Z,21.37
2023-02-02T23:00:30.615Z,21.43
2023-02-02T23:02:57.508Z,20.77
2023-02-02T23:05:25.559Z,19.93
2023-02-02T23:07:53.499Z,20.63
2023-02-02T23:10:22.799Z,19.60
2023-02-02T23:12:49.677Z,22.03
2023-02-02T23:15:16.867Z,21.97
2023-02-02T23:17:43.231Z,20.23
2023-02-02T23:20:13.200Z,20.50
2023-02-02T23:22:39.560Z,20.70
2023-02-02T23:25:06.380Z,21.00
2023-02-02T23:27:32.993Z,21.23
2023-02-02T23:29:59.451Z,20.27
2023-02-02T23:32:25.799Z,20.43
2023-02-02T23:34:52.144Z,19.70
2023-02-02T23:37:18.557Z,20.03
2023-02-02T23:39:45.015Z,19.17
2023-02-02T23:42:11.319Z,18.67
2023-02-02T23:44:37.669Z,21.10
2023-02-02T23:47:05.010Z,19.47
2023-02-02T23:49:32.715Z,19.90
2023-02-02T23:51:59.647Z,19.37
2023-02-02T23:54:27.398Z,18.77
2023-02-02T23:56:53.825Z,20.93
2023-02-02T23:59:20.177Z,19.40
